sensor_id;sensor_type;location;lat;lon;timestamp;P1;durP1;ratioP1;P2;durP2;ratioP2
3329;SDS011;1677;49.576;10.990;2023-05-10T00:02:23;8.30;;;7.13;;
3329;SDS011;1677;49.576;10.990;2023-05-10T00:04:49;7.30;;;5.80;;
3329;SDS011;1677;49.576;10.990;2023-05-10T00:07:15;7.10;;;6.17;;
3329;SDS011;1677;49.576;10.990;2023-05-10T00:09:42;8.30;;;6.23;;
3329;SDS011;1677;49.576;10.990;2023-05-10T00:12:08;7.10;;;5.53;;
3329;SDS011;1677;49.576;10.990;2023-05-10T00:14:34;8.27;;;6.63;;
3329;SDS011;1677;49.576;10.990;2023-05-10T00:17:00;6.90;;;5.80;;
3329;SDS011;1677;49.576;10.990;2023-05-10T00:19:25;6.23;;;5.63;;
3329;SDS011;1677;49.576;10.990;2023-05-10T00:21:51;7.80;;;7.00;;
3329;SDS011;1677;49.576;10.990;2023-05-10T00:24:16;8.55;;;7.75;;
3329;SDS011;1677;49.576;10.990;2023-05-10T00:26:42;6.73;;;6.13;;
3329;SDS011;1677;49.576;10.990;2023-05-10T00:29:08;7.67;;;6.87;;
3329;SDS011;1677;49.576;10.990;2023-05-10T00:31:33;8.60;;;7.80;;
3329;SDS011;1677;49.576;10.990;2023-05-10T00:33:59;6.90;;;6.20;;
3329;SDS011;1677;49.576;10.990;2023-05-10T00:36:25;8.60;;;6.57;;
3329;SDS011;1677;49.576;10.990;2023-05-10T00:38:50;7.80;;;7.00;;
3329;SDS011;1677;49.576;10.990;2023-05-10T00:41:16;6.93;;;6.23;;
3329;SDS011;1677;49.576;10.990;2023-05-10T00:43:42;8.00;;;7.20;;
3329;SDS011;1677;49.576;10.990;2023-05-10T00:46:07;9.20;;;6.83;;
3329;SDS011;1677;49.576;10.990;2023-05-10T00:48:33;10.57;;;7.00;;
3329;SDS011;1677;49.576;10.990;2023-05-10T00:51:00;9.97;;;7.60;;
3329;SDS011;1677;49.576;10.990;2023-05-10T00:53:26;9.87;;;7.30;;
3329;SDS011;1677;49.576;10.990;2023-05-10T00:55:52;8.03;;;6.53;;
3329;SDS011;1677;49.576;10.990;2023-05-10T00:58:18;8.77;;;6.67;;
3329;SDS011;1677;49.576;10.990;2023-05-10T01:00:43;10.27;;;7.60;;
3329;SDS011;1677;49.576;10.990;2023-05-10T01:03:11;11.83;;;8.10;;
3329;SDS011;1677;49.576;10.990;2023-05-10T01:05:37;8.57;;;7.10;;
3329;SDS011;1677;49.576;10.990;2023-05-10T01:08:03;7.43;;;6.73;;
3329;SDS011;1677;49.576;10.990;2023-05-10T01:10:28;6.90;;;6.20;;
3329;SDS011;1677;49.576;10.990;2023-05-10T01:12:55;7.17;;;6.47;;
3329;SDS011;1677;49.576;10.990;2023-05-10T01:15:21;7.17;;;6.57;;
3329;SDS011;1677;49.576;10.990;2023-05-10T01:17:47;7.20;;;6.50;;
3329;SDS011;1677;49.576;10.990;2023-05-10T01:20:14;7.17;;;6.47;;
3329;SDS011;1677;49.576;10.990;2023-05-10T01:22:52;8.97;;;6.47;;
3329;SDS011;1677;49.576;10.990;2023-05-10T01:25:48;7.50;;;6.80;;
3329;SDS011;1677;49.576;10.990;2023-05-10T01:34:04;7.73;;;6.07;;
3329;SDS011;1677;49.576;10.990;2023-05-10T01:36:51;10.00;;;6.53;;
3329;SDS011;1677;49.576;10.990;2023-05-10T01:42:17;8.00;;;6.60;;
3329;SDS011;1677;49.576;10.990;2023-05-10T01:47:46;10.75;;;7.70;;
3329;SDS011;1677;49.576;10.990;2023-05-10T01:50:17;8.47;;;7.70;;
3329;SDS011;1677;49.576;10.990;2023-05-10T01:52:51;9.00;;;7.17;;
3329;SDS011;1677;49.576;10.990;2023-05-10T01:55:20;8.70;;;7.30;;
3329;SDS011;1677;49.576;10.990;2023-05-10T01:57:49;14.20;;;6.93;;
3329;SDS011;1677;49.576;10.990;2023-05-10T02:00:20;8.13;;;7.33;;
3329;SDS011;1677;49.576;10.990;2023-05-10T02:02:47;8.90;;;7.37;;
3329;SDS011;1677;49.576;10.990;2023-05-10T02:05:14;8.37;;;7.43;;
3329;SDS011;1677;49.576;10.990;2023-05-10T02:07:41;8.37;;;7.33;;
3329;SDS011;1677;49.576;10.990;2023-05-10T02:10:08;7.47;;;6.77;;
3329;SDS011;1677;49.576;10.990;2023-05-10T02:12:36;10.17;;;7.10;;
3329;SDS011;1677;49.576;10.990;2023-05-10T02:15:04;7.13;;;6.30;;
3329;SDS011;1677;49.576;10.990;2023-05-10T02:17:32;9.70;;;6.83;;
3329;SDS011;1677;49.576;10.990;2023-05-10T02:19:59;7.63;;;6.87;;
3329;SDS011;1677;49.576;10.990;2023-05-10T02:22:27;7.20;;;6.50;;
3329;SDS011;1677;49.576;10.990;2023-05-10T02:24:56;7.87;;;7.07;;
3329;SDS011;1677;49.576;10.990;2023-05-10T02:27:24;6.70;;;6.00;;
3329;SDS011;1677;49.576;10.990;2023-05-10T02:29:52;7.60;;;6.27;;
3329;SDS011;1677;49.576;10.990;2023-05-10T02:32:19;6.57;;;5.90;;
3329;SDS011;1677;49.576;10.990;2023-05-10T02:34:46;8.53;;;6.90;;
3329;SDS011;1677;49.576;10.990;2023-05-10T02:37:16;7.80;;;6.27;;
3329;SDS011;1677;49.576;10.990;2023-05-10T02:39:49;7.50;;;6.15;;
3329;SDS011;1677;49.576;10.990;2023-05-10T02:42:16;5.53;;;4.67;;
3329;SDS011;1677;49.576;10.990;2023-05-10T02:44:45;6.33;;;4.73;;
3329;SDS011;1677;49.576;10.990;2023-05-10T02:47:13;6.00;;;4.90;;
3329;SDS011;1677;49.576;10.990;2023-05-10T02:49:39;4.87;;;3.63;;
3329;SDS011;1677;49.576;10.990;2023-05-10T02:52:05;4.30;;;2.50;;
3329;SDS011;1677;49.576;10.990;2023-05-10T02:54:34;2.47;;;1.90;;
3329;SDS011;1677;49.576;10.990;2023-05-10T02:57:06;2.30;;;1.90;;
3329;SDS011;1677;49.576;10.990;2023-05-10T02:59:34;2.10;;;1.90;;
3329;SDS011;1677;49.576;10.990;2023-05-10T03:02:00;1.83;;;1.73;;
3329;SDS011;1677;49.576;10.990;2023-05-10T03:04:27;1.73;;;1.50;;
3329;SDS011;1677;49.576;10.990;2023-05-10T03:06:52;2.30;;;1.50;;
3329;SDS011;1677;49.576;10.990;2023-05-10T03:09:18;3.33;;;2.37;;
3329;SDS011;1677;49.576;10.990;2023-05-10T03:17:11;2.80;;;1.80;;
3329;SDS011;1677;49.576;10.990;2023-05-10T03:19:56;2.60;;;1.93;;
3329;SDS011;1677;49.576;10.990;2023-05-10T03:22:46;4.43;;;1.80;;
3329;SDS011;1677;49.576;10.990;2023-05-10T03:25:15;4.72;;;2.10;;
3329;SDS011;1677;49.576;10.990;2023-05-10T03:27:41;4.97;;;2.00;;
3329;SDS011;1677;49.576;10.990;2023-05-10T03:30:08;2.40;;;1.30;;
3329;SDS011;1677;49.576;10.990;2023-05-10T03:32:36;3.07;;;1.40;;
3329;SDS011;1677;49.576;10.990;2023-05-10T03:35:12;1.70;;;1.60;;
3329;SDS011;1677;49.576;10.990;2023-05-10T03:37:40;2.33;;;1.67;;
3329;SDS011;1677;49.576;10.990;2023-05-10T03:40:06;2.40;;;1.23;;
3329;SDS011;1677;49.576;10.990;2023-05-10T03:42:32;5.27;;;1.60;;
3329;SDS011;1677;49.576;10.990;2023-05-10T03:44:57;1.57;;;1.17;;
3329;SDS011;1677;49.576;10.990;2023-05-10T03:47:23;2.97;;;1.50;;
3329;SDS011;1677;49.576;10.990;2023-05-10T03:49:49;3.07;;;1.70;;
3329;SDS011;1677;49.576;10.990;2023-05-10T03:52:14;1.30;;;1.10;;
3329;SDS011;1677;49.576;10.990;2023-05-10T03:54:40;1.97;;;1.10;;
3329;SDS011;1677;49.576;10.990;2023-05-10T03:57:06;1.63;;;0.97;;
3329;SDS011;1677;49.576;10.990;2023-05-10T03:59:31;5.17;;;1.30;;
3329;SDS011;1677;49.576;10.990;2023-05-10T04:01:57;1.40;;;1.30;;
3329;SDS011;1677;49.576;10.990;2023-05-10T04:04:22;3.57;;;1.20;;
3329;SDS011;1677;49.576;10.990;2023-05-10T04:06:48;1.23;;;0.97;;
3329;SDS011;1677;49.576;10.990;2023-05-10T04:09:14;3.80;;;1.20;;
3329;SDS011;1677;49.576;10.990;2023-05-10T04:11:41;4.40;;;1.10;;
3329;SDS011;1677;49.576;10.990;2023-05-10T04:14:07;2.70;;;1.47;;
3329;SDS011;1677;49.576;10.990;2023-05-10T04:16:32;4.00;;;1.30;;
3329;SDS011;1677;49.576;10.990;2023-05-10T04:18:58;1.93;;;1.10;;
3329;SDS011;1677;49.576;10.990;2023-05-10T04:21:24;1.47;;;1.20;;
3329;SDS011;1677;49.576;10.990;2023-05-10T04:23:50;1.80;;;1.07;;
3329;SDS011;1677;49.576;10.990;2023-05-10T04:26:15;3.43;;;1.10;;
3329;SDS011;1677;49.576;10.990;2023-05-10T04:28:41;1.50;;;1.10;;
3329;SDS011;1677;49.576;10.990;2023-05-10T04:31:07;1.30;;;1.00;;
3329;SDS011;1677;49.576;10.990;2023-05-10T04:33:34;1.20;;;0.90;;
3329;SDS011;1677;49.576;10.990;2023-05-10T04:36:00;1.37;;;1.20;;
3329;SDS011;1677;49.576;10.990;2023-05-10T04:38:26;1.30;;;0.90;;
3329;SDS011;1677;49.576;10.990;2023-05-10T04:40:52;4.20;;;1.10;;
3329;SDS011;1677;49.576;10.990;2023-05-10T04:43:18;2.20;;;1.20;;
3329;SDS011;1677;49.576;10.990;2023-05-10T04:45:45;1.63;;;0.90;;
3329;SDS011;1677;49.576;10.990;2023-05-10T04:48:10;1.33;;;1.23;;
3329;SDS011;1677;49.576;10.990;2023-05-10T04:50:36;2.97;;;1.50;;
3329;SDS011;1677;49.576;10.990;2023-05-10T04:53:02;2.10;;;1.07;;
3329;SDS011;1677;49.576;10.990;2023-05-10T04:55:27;1.90;;;1.10;;
3329;SDS011;1677;49.576;10.990;2023-05-10T04:57:53;3.53;;;1.03;;
3329;SDS011;1677;49.576;10.990;2023-05-10T05:00:21;1.33;;;1.07;;
3329;SDS011;1677;49.576;10.990;2023-05-10T05:02:47;1.93;;;1.30;;
3329;SDS011;1677;49.576;10.990;2023-05-10T05:05:13;1.30;;;1.20;;
3329;SDS011;1677;49.576;10.990;2023-05-10T05:07:38;1.20;;;0.90;;
3329;SDS011;1677;49.576;10.990;2023-05-10T05:10:05;1.97;;;1.00;;
3329;SDS011;1677;49.576;10.990;2023-05-10T05:12:31;3.83;;;0.90;;
3329;SDS011;1677;49.576;10.990;2023-05-10T05:14:57;2.17;;;1.30;;
3329;SDS011;1677;49.576;10.990;2023-05-10T05:17:23;1.07;;;0.97;;
3329;SDS011;1677;49.576;10.990;2023-05-10T05:19:48;4.27;;;0.93;;
3329;SDS011;1677;49.576;10.990;2023-05-10T05:22:14;1.40;;;1.30;;
3329;SDS011;1677;49.576;10.990;2023-05-10T05:24:39;1.83;;;1.00;;
3329;SDS011;1677;49.576;10.990;2023-05-10T05:27:05;1.27;;;0.90;;
3329;SDS011;1677;49.576;10.990;2023-05-10T05:29:31;2.10;;;1.30;;
3329;SDS011;1677;49.576;10.990;2023-05-10T05:31:56;1.40;;;1.30;;
3329;SDS011;1677;49.576;10.990;2023-05-10T05:34:22;2.50;;;1.10;;
3329;SDS011;1677;49.576;10.990;2023-05-10T05:36:49;1.33;;;1.23;;
3329;SDS011;1677;49.576;10.990;2023-05-10T05:39:14;9.20;;;1.60;;
3329;SDS011;1677;49.576;10.990;2023-05-10T05:41:40;1.73;;;1.17;;
3329;SDS011;1677;49.576;10.990;2023-05-10T05:44:05;2.73;;;1.33;;
3329;SDS011;1677;49.576;10.990;2023-05-10T05:46:31;2.37;;;1.57;;
3329;SDS011;1677;49.576;10.990;2023-05-10T05:48:56;2.03;;;1.30;;
3329;SDS011;1677;49.576;10.990;2023-05-10T05:51:22;4.20;;;1.43;;
3329;SDS011;1677;49.576;10.990;2023-05-10T05:53:48;3.57;;;1.40;;
3329;SDS011;1677;49.576;10.990;2023-05-10T05:56:13;1.63;;;1.33;;
3329;SDS011;1677;49.576;10.990;2023-05-10T05:58:39;1.37;;;1.27;;
3329;SDS011;1677;49.576;10.990;2023-05-10T06:01:04;1.57;;;1.30;;
3329;SDS011;1677;49.576;10.990;2023-05-10T06:03:30;1.50;;;1.40;;
3329;SDS011;1677;49.576;10.990;2023-05-10T06:05:56;1.50;;;1.23;;
3329;SDS011;1677;49.576;10.990;2023-05-10T06:08:21;1.73;;;1.63;;
3329;SDS011;1677;49.576;10.990;2023-05-10T06:10:47;1.70;;;1.53;;
3329;SDS011;1677;49.576;10.990;2023-05-10T06:13:13;1.87;;;1.67;;
3329;SDS011;1677;49.576;10.990;2023-05-10T06:15:38;1.20;;;1.10;;
3329;SDS011;1677;49.576;10.990;2023-05-10T06:18:04;1.80;;;1.43;;
3329;SDS011;1677;49.576;10.990;2023-05-10T06:20:31;3.63;;;1.73;;
3329;SDS011;1677;49.576;10.990;2023-05-10T06:22:57;2.57;;;1.53;;
3329;SDS011;1677;49.576;10.990;2023-05-10T06:25:23;2.27;;;2.00;;
3329;SDS011;1677;49.576;10.990;2023-05-10T06:27:48;2.33;;;1.88;;
3329;SDS011;1677;49.576;10.990;2023-05-10T06:30:14;2.87;;;1.90;;
3329;SDS011;1677;49.576;10.990;2023-05-10T06:32:40;2.03;;;1.70;;
3329;SDS011;1677;49.576;10.990;2023-05-10T06:35:06;1.50;;;1.40;;
3329;SDS011;1677;49.576;10.990;2023-05-10T06:37:32;1.60;;;1.30;;
3329;SDS011;1677;49.576;10.990;2023-05-10T06:39:58;5.60;;;1.77;;
3329;SDS011;1677;49.576;10.990;2023-05-10T06:42:23;2.00;;;1.40;;
3329;SDS011;1677;49.576;10.990;2023-05-10T06:44:50;2.07;;;1.40;;
3329;SDS011;1677;49.576;10.990;2023-05-10T06:47:16;1.73;;;1.37;;
3329;SDS011;1677;49.576;10.990;2023-05-10T06:49:42;1.60;;;1.50;;
3329;SDS011;1677;49.576;10.990;2023-05-10T06:52:07;2.53;;;1.50;;
3329;SDS011;1677;49.576;10.990;2023-05-10T06:54:33;1.43;;;1.20;;
3329;SDS011;1677;49.576;10.990;2023-05-10T06:56:58;5.83;;;1.40;;
3329;SDS011;1677;49.576;10.990;2023-05-10T06:59:24;2.03;;;1.30;;
3329;SDS011;1677;49.576;10.990;2023-05-10T07:01:50;2.20;;;1.80;;
3329;SDS011;1677;49.576;10.990;2023-05-10T07:04:16;1.75;;;1.40;;
3329;SDS011;1677;49.576;10.990;2023-05-10T07:06:42;1.60;;;1.10;;
3329;SDS011;1677;49.576;10.990;2023-05-10T07:09:08;1.17;;;0.97;;
3329;SDS011;1677;49.576;10.990;2023-05-10T07:11:34;4.70;;;1.40;;
3329;SDS011;1677;49.576;10.990;2023-05-10T07:13:59;2.45;;;1.45;;
3329;SDS011;1677;49.576;10.990;2023-05-10T07:16:25;2.40;;;0.90;;
3329;SDS011;1677;49.576;10.990;2023-05-10T07:18:50;2.60;;;1.20;;
3329;SDS011;1677;49.576;10.990;2023-05-10T07:21:17;2.80;;;0.97;;
3329;SDS011;1677;49.576;10.990;2023-05-10T07:23:43;1.30;;;1.10;;
3329;SDS011;1677;49.576;10.990;2023-05-10T07:26:09;1.30;;;0.97;;
3329;SDS011;1677;49.576;10.990;2023-05-10T07:28:35;2.17;;;1.30;;
3329;SDS011;1677;49.576;10.990;2023-05-10T07:31:02;0.90;;;0.80;;
3329;SDS011;1677;49.576;10.990;2023-05-10T07:33:28;3.17;;;0.93;;
3329;SDS011;1677;49.576;10.990;2023-05-10T07:35:53;1.27;;;1.10;;
3329;SDS011;1677;49.576;10.990;2023-05-10T07:38:19;1.20;;;0.97;;
3329;SDS011;1677;49.576;10.990;2023-05-10T07:40:44;2.90;;;1.10;;
3329;SDS011;1677;49.576;10.990;2023-05-10T07:43:10;1.30;;;1.10;;
3329;SDS011;1677;49.576;10.990;2023-05-10T07:45:35;2.93;;;1.37;;
3329;SDS011;1677;49.576;10.990;2023-05-10T07:48:01;2.97;;;1.20;;
3329;SDS011;1677;49.576;10.990;2023-05-10T07:50:26;1.40;;;1.30;;
3329;SDS011;1677;49.576;10.990;2023-05-10T07:52:52;1.43;;;1.23;;
3329;SDS011;1677;49.576;10.990;2023-05-10T07:55:18;1.60;;;1.43;;
3329;SDS011;1677;49.576;10.990;2023-05-10T07:57:44;1.48;;;1.38;;
3329;SDS011;1677;49.576;10.990;2023-05-10T08:00:12;2.37;;;1.30;;
3329;SDS011;1677;49.576;10.990;2023-05-10T08:02:38;1.37;;;1.20;;
3329;SDS011;1677;49.576;10.990;2023-05-10T08:05:04;3.07;;;1.43;;
3329;SDS011;1677;49.576;10.990;2023-05-10T08:07:30;1.63;;;1.43;;
3329;SDS011;1677;49.576;10.990;2023-05-10T08:09:56;1.67;;;1.57;;
3329;SDS011;1677;49.576;10.990;2023-05-10T08:12:21;2.20;;;1.80;;
3329;SDS011;1677;49.576;10.990;2023-05-10T08:14:47;6.00;;;1.73;;
3329;SDS011;1677;49.576;10.990;2023-05-10T08:17:12;2.47;;;1.50;;
3329;SDS011;1677;49.576;10.990;2023-05-10T08:19:38;1.50;;;1.40;;
3329;SDS011;1677;49.576;10.990;2023-05-10T08:22:03;1.67;;;1.57;;
3329;SDS011;1677;49.576;10.990;2023-05-10T08:24:29;3.43;;;1.70;;
3329;SDS011;1677;49.576;10.990;2023-05-10T08:26:55;1.37;;;1.27;;
3329;SDS011;1677;49.576;10.990;2023-05-10T08:29:20;2.07;;;1.43;;
3329;SDS011;1677;49.576;10.990;2023-05-10T08:31:46;1.40;;;1.30;;
3329;SDS011;1677;49.576;10.990;2023-05-10T08:34:11;3.13;;;1.53;;
3329;SDS011;1677;49.576;10.990;2023-05-10T08:36:37;1.60;;;1.33;;
3329;SDS011;1677;49.576;10.990;2023-05-10T08:39:02;2.40;;;1.70;;
3329;SDS011;1677;49.576;10.990;2023-05-10T08:41:28;5.30;;;2.10;;
3329;SDS011;1677;49.576;10.990;2023-05-10T08:43:58;2.30;;;1.60;;
3329;SDS011;1677;49.576;10.990;2023-05-10T08:46:24;2.80;;;1.70;;
3329;SDS011;1677;49.576;10.990;2023-05-10T08:48:52;1.50;;;1.40;;
3329;SDS011;1677;49.576;10.990;2023-05-10T08:51:19;10.50;;;1.70;;
3329;SDS011;1677;49.576;10.990;2023-05-10T08:53:48;1.47;;;1.30;;
3329;SDS011;1677;49.576;10.990;2023-05-10T08:56:15;1.57;;;1.20;;
3329;SDS011;1677;49.576;10.990;2023-05-10T08:58:41;2.13;;;1.47;;
3329;SDS011;1677;49.576;10.990;2023-05-10T09:01:07;1.40;;;1.30;;
3329;SDS011;1677;49.576;10.990;2023-05-10T09:03:35;2.10;;;1.90;;
3329;SDS011;1677;49.576;10.990;2023-05-10T09:06:03;2.67;;;1.80;;
3329;SDS011;1677;49.576;10.990;2023-05-10T09:08:29;1.43;;;1.30;;
3329;SDS011;1677;49.576;10.990;2023-05-10T09:10:56;3.33;;;2.00;;
3329;SDS011;1677;49.576;10.990;2023-05-10T09:13:22;2.43;;;1.50;;
3329;SDS011;1677;49.576;10.990;2023-05-10T09:15:48;1.47;;;1.37;;
3329;SDS011;1677;49.576;10.990;2023-05-10T09:18:14;1.83;;;1.67;;
3329;SDS011;1677;49.576;10.990;2023-05-10T09:20:40;2.30;;;1.50;;
3329;SDS011;1677;49.576;10.990;2023-05-10T09:23:06;3.67;;;1.50;;
3329;SDS011;1677;49.576;10.990;2023-05-10T09:25:32;5.13;;;1.85;;
3329;SDS011;1677;49.576;10.990;2023-05-10T09:28:01;1.43;;;1.30;;
3329;SDS011;1677;49.576;10.990;2023-05-10T09:30:30;1.63;;;1.53;;
3329;SDS011;1677;49.576;10.990;2023-05-10T09:32:56;3.23;;;1.60;;
3329;SDS011;1677;49.576;10.990;2023-05-10T09:35:24;2.60;;;2.00;;
3329;SDS011;1677;49.576;10.990;2023-05-10T09:37:52;1.60;;;1.43;;
3329;SDS011;1677;49.576;10.990;2023-05-10T09:40:19;1.20;;;0.90;;
3329;SDS011;1677;49.576;10.990;2023-05-10T09:42:53;1.80;;;1.60;;
3329;SDS011;1677;49.576;10.990;2023-05-10T09:45:20;1.43;;;1.33;;
3329;SDS011;1677;49.576;10.990;2023-05-10T09:47:47;1.40;;;1.10;;
3329;SDS011;1677;49.576;10.990;2023-05-10T09:50:13;1.90;;;1.17;;
3329;SDS011;1677;49.576;10.990;2023-05-10T09:52:48;3.23;;;1.37;;
3329;SDS011;1677;49.576;10.990;2023-05-10T09:55:37;1.97;;;1.70;;
3329;SDS011;1677;49.576;10.990;2023-05-10T09:58:03;4.43;;;1.30;;
3329;SDS011;1677;49.576;10.990;2023-05-10T10:00:35;2.13;;;1.17;;
3329;SDS011;1677;49.576;10.990;2023-05-10T10:03:02;1.60;;;1.03;;
3329;SDS011;1677;49.576;10.990;2023-05-10T10:05:31;4.03;;;1.43;;
3329;SDS011;1677;49.576;10.990;2023-05-10T10:07:59;1.53;;;1.30;;
3329;SDS011;1677;49.576;10.990;2023-05-10T10:10:26;1.37;;;1.13;;
3329;SDS011;1677;49.576;10.990;2023-05-10T10:12:53;1.27;;;1.10;;
3329;SDS011;1677;49.576;10.990;2023-05-10T10:15:22;1.40;;;1.00;;
3329;SDS011;1677;49.576;10.990;2023-05-10T10:17:49;1.20;;;1.00;;
3329;SDS011;1677;49.576;10.990;2023-05-10T10:20:16;1.30;;;0.90;;
3329;SDS011;1677;49.576;10.990;2023-05-10T10:22:43;1.80;;;1.10;;
3329;SDS011;1677;49.576;10.990;2023-05-10T10:25:10;2.57;;;1.40;;
3329;SDS011;1677;49.576;10.990;2023-05-10T10:33:11;2.23;;;1.53;;
3329;SDS011;1677;49.576;10.990;2023-05-10T10:36:00;4.60;;;1.40;;
3329;SDS011;1677;49.576;10.990;2023-05-10T10:41:30;3.73;;;1.57;;
3329;SDS011;1677;49.576;10.990;2023-05-10T10:49:25;2.17;;;1.48;;
3329;SDS011;1677;49.576;10.990;2023-05-10T10:52:12;2.73;;;1.47;;
3329;SDS011;1677;49.576;10.990;2023-05-10T11:00:35;1.90;;;1.37;;
3329;SDS011;1677;49.576;10.990;2023-05-10T11:03:08;1.70;;;1.17;;
3329;SDS011;1677;49.576;10.990;2023-05-10T11:05:44;3.10;;;1.80;;
3329;SDS011;1677;49.576;10.990;2023-05-10T11:08:30;2.40;;;1.40;;
3329;SDS011;1677;49.576;10.990;2023-05-10T11:13:29;1.90;;;1.77;;
3329;SDS011;1677;49.576;10.990;2023-05-10T11:15:56;3.60;;;1.93;;
3329;SDS011;1677;49.576;10.990;2023-05-10T11:18:24;1.80;;;1.70;;
3329;SDS011;1677;49.576;10.990;2023-05-10T11:20:58;2.70;;;2.10;;
3329;SDS011;1677;49.576;10.990;2023-05-10T11:23:51;1.97;;;1.50;;
3329;SDS011;1677;49.576;10.990;2023-05-10T11:26:17;3.87;;;1.73;;
3329;SDS011;1677;49.576;10.990;2023-05-10T11:28:47;2.28;;;2.03;;
3329;SDS011;1677;49.576;10.990;2023-05-10T11:31:13;2.10;;;1.67;;
3329;SDS011;1677;49.576;10.990;2023-05-10T11:33:44;2.40;;;1.80;;
3329;SDS011;1677;49.576;10.990;2023-05-10T11:36:19;1.90;;;1.80;;
3329;SDS011;1677;49.576;10.990;2023-05-10T11:38:47;1.80;;;1.67;;
3329;SDS011;1677;49.576;10.990;2023-05-10T11:41:13;1.90;;;1.70;;
3329;SDS011;1677;49.576;10.990;2023-05-10T11:43:40;2.07;;;1.63;;
3329;SDS011;1677;49.576;10.990;2023-05-10T11:46:07;1.40;;;1.20;;
3329;SDS011;1677;49.576;10.990;2023-05-10T11:48:35;1.50;;;1.10;;
3329;SDS011;1677;49.576;10.990;2023-05-10T11:51:01;2.23;;;1.60;;
3329;SDS011;1677;49.576;10.990;2023-05-10T11:53:27;2.00;;;1.40;;
3329;SDS011;1677;49.576;10.990;2023-05-10T11:55:54;1.70;;;1.23;;
3329;SDS011;1677;49.576;10.990;2023-05-10T11:58:20;1.23;;;1.10;;
3329;SDS011;1677;49.576;10.990;2023-05-10T12:00:48;1.70;;;1.33;;
3329;SDS011;1677;49.576;10.990;2023-05-10T12:03:14;1.77;;;1.13;;
3329;SDS011;1677;49.576;10.990;2023-05-10T12:05:40;1.33;;;1.23;;
3329;SDS011;1677;49.576;10.990;2023-05-10T12:08:15;4.83;;;1.40;;
3329;SDS011;1677;49.576;10.990;2023-05-10T12:10:46;1.50;;;1.40;;
3329;SDS011;1677;49.576;10.990;2023-05-10T12:13:12;1.40;;;1.20;;
3329;SDS011;1677;49.576;10.990;2023-05-10T12:15:39;1.40;;;1.30;;
3329;SDS011;1677;49.576;10.990;2023-05-10T12:18:05;1.37;;;1.27;;
3329;SDS011;1677;49.576;10.990;2023-05-10T12:20:33;4.83;;;1.70;;
3329;SDS011;1677;49.576;10.990;2023-05-10T12:22:58;1.80;;;1.40;;
3329;SDS011;1677;49.576;10.990;2023-05-10T12:25:30;5.43;;;1.57;;
3329;SDS011;1677;49.576;10.990;2023-05-10T12:27:57;4.77;;;1.53;;
3329;SDS011;1677;49.576;10.990;2023-05-10T12:30:26;1.90;;;1.73;;
3329;SDS011;1677;49.576;10.990;2023-05-10T12:32:53;2.60;;;1.70;;
3329;SDS011;1677;49.576;10.990;2023-05-10T12:35:23;1.50;;;1.40;;
3329;SDS011;1677;49.576;10.990;2023-05-10T12:37:52;1.70;;;1.60;;
3329;SDS011;1677;49.576;10.990;2023-05-10T12:40:18;1.70;;;1.60;;
3329;SDS011;1677;49.576;10.990;2023-05-10T12:42:43;2.70;;;1.57;;
3329;SDS011;1677;49.576;10.990;2023-05-10T12:45:10;1.90;;;1.70;;
3329;SDS011;1677;49.576;10.990;2023-05-10T12:47:37;1.97;;;1.50;;
3329;SDS011;1677;49.576;10.990;2023-05-10T12:50:02;1.30;;;1.20;;
3329;SDS011;1677;49.576;10.990;2023-05-10T12:52:28;1.70;;;1.50;;
3329;SDS011;1677;49.576;10.990;2023-05-10T12:54:54;2.57;;;1.57;;
3329;SDS011;1677;49.576;10.990;2023-05-10T12:57:20;1.70;;;1.60;;
3329;SDS011;1677;49.576;10.990;2023-05-10T12:59:46;2.37;;;1.53;;
3329;SDS011;1677;49.576;10.990;2023-05-10T13:02:11;1.83;;;1.43;;
3329;SDS011;1677;49.576;10.990;2023-05-10T13:04:37;3.93;;;1.20;;
3329;SDS011;1677;49.576;10.990;2023-05-10T13:07:05;2.03;;;1.70;;
3329;SDS011;1677;49.576;10.990;2023-05-10T13:09:31;2.73;;;1.50;;
3329;SDS011;1677;49.576;10.990;2023-05-10T13:11:57;4.77;;;1.67;;
3329;SDS011;1677;49.576;10.990;2023-05-10T13:14:22;1.40;;;1.30;;
3329;SDS011;1677;49.576;10.990;2023-05-10T13:16:48;2.00;;;1.50;;
3329;SDS011;1677;49.576;10.990;2023-05-10T13:19:14;2.20;;;1.50;;
3329;SDS011;1677;49.576;10.990;2023-05-10T13:21:40;2.10;;;1.70;;
3329;SDS011;1677;49.576;10.990;2023-05-10T13:24:06;4.20;;;2.13;;
3329;SDS011;1677;49.576;10.990;2023-05-10T13:26:32;2.47;;;1.40;;
3329;SDS011;1677;49.576;10.990;2023-05-10T13:28:58;3.40;;;1.73;;
3329;SDS011;1677;49.576;10.990;2023-05-10T13:31:23;2.57;;;1.63;;
3329;SDS011;1677;49.576;10.990;2023-05-10T13:33:49;1.70;;;1.60;;
3329;SDS011;1677;49.576;10.990;2023-05-10T13:36:15;1.80;;;1.70;;
3329;SDS011;1677;49.576;10.990;2023-05-10T13:38:40;1.97;;;1.20;;
3329;SDS011;1677;49.576;10.990;2023-05-10T13:41:06;2.13;;;1.20;;
3329;SDS011;1677;49.576;10.990;2023-05-10T13:43:32;2.87;;;1.90;;
3329;SDS011;1677;49.576;10.990;2023-05-10T13:45:57;3.30;;;1.70;;
3329;SDS011;1677;49.576;10.990;2023-05-10T13:48:23;2.23;;;2.03;;
3329;SDS011;1677;49.576;10.990;2023-05-10T13:50:48;6.37;;;2.20;;
3329;SDS011;1677;49.576;10.990;2023-05-10T13:53:14;4.57;;;1.97;;
3329;SDS011;1677;49.576;10.990;2023-05-10T13:55:40;3.80;;;2.70;;
3329;SDS011;1677;49.576;10.990;2023-05-10T13:58:06;5.67;;;2.53;;
3329;SDS011;1677;49.576;10.990;2023-05-10T14:00:31;5.00;;;2.53;;
3329;SDS011;1677;49.576;10.990;2023-05-10T14:02:57;4.43;;;2.50;;
3329;SDS011;1677;49.576;10.990;2023-05-10T14:05:22;3.13;;;1.83;;
3329;SDS011;1677;49.576;10.990;2023-05-10T14:07:48;5.50;;;2.37;;
3329;SDS011;1677;49.576;10.990;2023-05-10T14:10:15;6.50;;;2.87;;
3329;SDS011;1677;49.576;10.990;2023-05-10T14:12:40;2.13;;;1.93;;
3329;SDS011;1677;49.576;10.990;2023-05-10T14:15:06;3.33;;;1.63;;
3329;SDS011;1677;49.576;10.990;2023-05-10T14:17:32;2.30;;;2.00;;
3329;SDS011;1677;49.576;10.990;2023-05-10T14:19:57;4.57;;;2.10;;
3329;SDS011;1677;49.576;10.990;2023-05-10T14:22:23;3.50;;;2.07;;
3329;SDS011;1677;49.576;10.990;2023-05-10T14:24:49;3.37;;;2.17;;
3329;SDS011;1677;49.576;10.990;2023-05-10T14:27:15;5.10;;;2.03;;
3329;SDS011;1677;49.576;10.990;2023-05-10T14:29:40;2.00;;;1.67;;
3329;SDS011;1677;49.576;10.990;2023-05-10T14:32:06;1.87;;;1.60;;
3329;SDS011;1677;49.576;10.990;2023-05-10T14:34:32;2.93;;;1.70;;
3329;SDS011;1677;49.576;10.990;2023-05-10T14:36:58;3.67;;;1.40;;
3329;SDS011;1677;49.576;10.990;2023-05-10T14:39:24;2.20;;;1.50;;
3329;SDS011;1677;49.576;10.990;2023-05-10T14:41:50;2.80;;;1.37;;
3329;SDS011;1677;49.576;10.990;2023-05-10T14:44:17;2.80;;;1.70;;
3329;SDS011;1677;49.576;10.990;2023-05-10T14:46:42;1.50;;;1.40;;
3329;SDS011;1677;49.576;10.990;2023-05-10T14:49:08;1.60;;;1.50;;
3329;SDS011;1677;49.576;10.990;2023-05-10T14:51:33;3.23;;;1.43;;
3329;SDS011;1677;49.576;10.990;2023-05-10T14:53:59;1.97;;;1.50;;
3329;SDS011;1677;49.576;10.990;2023-05-10T14:56:25;2.30;;;1.73;;
3329;SDS011;1677;49.576;10.990;2023-05-10T14:58:51;1.80;;;1.10;;
3329;SDS011;1677;49.576;10.990;2023-05-10T15:01:16;1.90;;;1.47;;
3329;SDS011;1677;49.576;10.990;2023-05-10T15:03:42;1.97;;;1.40;;
3329;SDS011;1677;49.576;10.990;2023-05-10T15:06:08;4.50;;;1.27;;
3329;SDS011;1677;49.576;10.990;2023-05-10T15:08:33;1.40;;;1.20;;
3329;SDS011;1677;49.576;10.990;2023-05-10T15:10:59;1.53;;;1.43;;
3329;SDS011;1677;49.576;10.990;2023-05-10T15:13:25;1.60;;;1.50;;
3329;SDS011;1677;49.576;10.990;2023-05-10T15:15:50;1.83;;;1.73;;
3329;SDS011;1677;49.576;10.990;2023-05-10T15:18:16;1.47;;;1.37;;
3329;SDS011;1677;49.576;10.990;2023-05-10T15:20:41;4.03;;;1.90;;
3329;SDS011;1677;49.576;10.990;2023-05-10T15:23:07;2.00;;;1.53;;
3329;SDS011;1677;49.576;10.990;2023-05-10T15:25:33;2.42;;;2.03;;
3329;SDS011;1677;49.576;10.990;2023-05-10T15:28:02;2.50;;;2.27;;
3329;SDS011;1677;49.576;10.990;2023-05-10T15:30:28;2.87;;;1.90;;
3329;SDS011;1677;49.576;10.990;2023-05-10T15:32:54;2.20;;;2.03;;
3329;SDS011;1677;49.576;10.990;2023-05-10T15:35:20;3.20;;;2.38;;
3329;SDS011;1677;49.576;10.990;2023-05-10T15:37:46;5.23;;;2.00;;
3329;SDS011;1677;49.576;10.990;2023-05-10T15:40:12;1.90;;;1.60;;